createdAt,value
2018-06-28T00:00:05.488Z,61.78
2018-06-28T00:00:27.306Z,62.05
2018-06-28T00:00:49.082Z,62.30
2018-06-28T00:01:10.862Z,61.76
2018-06-28T00:01:32.656Z,61.80
2018-06-28T00:01:54.505Z,62.28
2018-06-28T00:02:16.280Z,62.11
2018-06-28T00:02:38.072Z,61.87
2018-06-28T00:02:59.834Z,61.88
2018-06-28T00:03:21.631Z,62.36
2018-06-28T00:03:43.687Z,61.00
2018-06-28T00:04:05.443Z,61.98
2018-06-28T00:04:27.220Z,61.49
2018-06-28T00:04:49.016Z,61.99
2018-06-28T00:05:10.794Z,61.55
2018-06-28T00:05:32.655Z,62.10
2018-06-28T00:05:54.444Z,61.30
2018-06-28T00:06:16.226Z,61.48
2018-06-28T00:06:38.009Z,62.21
2018-06-28T00:06:59.789Z,62.05
2018-06-28T00:07:21.571Z,61.69
2018-06-28T00:07:43.355Z,62.07
2018-06-28T00:08:05.111Z,61.56
2018-06-28T00:08:26.897Z,61.84
2018-06-28T00:08:48.655Z,61.38
2018-06-28T00:09:10.596Z,61.69
2018-06-28T00:09:32.379Z,61.67
2018-06-28T00:09:54.139Z,61.62
2018-06-28T00:10:15.893Z,61.99
2018-06-28T00:10:37.650Z,61.22
2018-06-28T00:10:59.451Z,61.34
2018-06-28T00:11:21.204Z,61.17
2018-06-28T00:11:42.968Z,60.94
2018-06-28T00:12:04.750Z,61.46
2018-06-28T00:12:26.520Z,61.23
2018-06-28T00:12:48.275Z,61.24
2018-06-28T00:13:10.031Z,61.43
2018-06-28T00:13:31.810Z,61.41
2018-06-28T00:13:53.568Z,61.78
2018-06-28T00:14:15.327Z,61.42
2018-06-28T00:14:37.104Z,61.15
2018-06-28T00:14:58.868Z,61.10
2018-06-28T00:15:20.654Z,61.59
2018-06-28T00:15:42.581Z,62.11
2018-06-28T00:16:04.342Z,61.24
2018-06-28T00:16:26.108Z,61.82
2018-06-28T00:16:47.886Z,61.45
2018-06-28T00:17:09.654Z,61.34
2018-06-28T00:17:31.449Z,60.80
2018-06-28T00:17:53.204Z,61.56
2018-06-28T00:18:14.971Z,60.94
2018-06-28T00:18:36.768Z,61.49
2018-06-28T00:18:58.533Z,60.72
2018-06-28T00:19:20.307Z,61.66
2018-06-28T00:19:42.059Z,60.82
2018-06-28T00:20:03.825Z,61.19
2018-06-28T00:20:25.571Z,61.04
2018-06-28T00:20:47.341Z,60.82
2018-06-28T00:21:09.110Z,61.33
2018-06-28T00:21:31.152Z,61.26
2018-06-28T00:21:52.912Z,61.58
2018-06-28T00:22:14.697Z,60.83
2018-06-28T00:22:36.500Z,60.74
2018-06-28T00:22:58.255Z,61.28
2018-06-28T00:23:20.018Z,61.04
2018-06-28T00:23:41.798Z,61.28
2018-06-28T00:24:03.554Z,61.06
2018-06-28T00:24:25.307Z,61.08
2018-06-28T00:24:47.097Z,61.37
2018-06-28T00:25:08.848Z,61.04
2018-06-28T00:25:30.636Z,61.34
2018-06-28T00:25:52.405Z,61.40
2018-06-28T00:26:14.428Z,60.81
2018-06-28T00:26:36.183Z,60.79
2018-06-28T00:26:57.944Z,60.82
2018-06-28T00:27:19.690Z,61.12
2018-06-28T00:27:41.465Z,61.58
2018-06-28T00:28:03.228Z,61.62
2018-06-28T00:28:24.992Z,60.70
2018-06-28T00:28:46.780Z,61.54
2018-06-28T00:29:08.542Z,60.76
2018-06-28T00:29:30.293Z,60.66
2018-06-28T00:29:52.038Z,61.25
2018-06-28T00:30:13.824Z,61.25
2018-06-28T00:30:35.584Z,61.09
2018-06-28T00:30:57.356Z,60.92
2018-06-28T00:31:19.110Z,60.44
2018-06-28T00:31:40.881Z,60.90
2018-06-28T00:32:02.648Z,60.76
2018-06-28T00:32:24.417Z,61.07
2018-06-28T00:32:46.173Z,61.09
2018-06-28T00:33:07.962Z,61.02
2018-06-28T00:33:29.729Z,61.04
2018-06-28T00:33:51.523Z,60.78
2018-06-28T00:34:13.286Z,60.78
2018-06-28T00:34:35.044Z,60.49
2018-06-28T00:34:56.803Z,60.86
2018-06-28T00:35:18.563Z,61.04
2018-06-28T00:35:40.310Z,60.48
2018-06-28T00:36:02.064Z,60.51
2018-06-28T00:36:23.828Z,61.22
2018-06-28T00:36:45.610Z,60.75
2018-06-28T00:37:07.368Z,61.30
2018-06-28T00:37:29.176Z,60.80
2018-06-28T00:37:50.947Z,60.89
2018-06-28T00:38:12.712Z,60.60
2018-06-28T00:38:34.467Z,60.82
2018-06-28T00:38:56.287Z,61.18
2018-06-28T00:39:18.055Z,60.67
2018-06-28T00:39:39.821Z,60.64
2018-06-28T00:40:01.593Z,61.32
2018-06-28T00:40:23.359Z,60.34
2018-06-28T00:40:45.241Z,60.83
2018-06-28T00:41:07.004Z,60.58
2018-06-28T00:41:29.762Z,60.92
2018-06-28T00:41:51.523Z,60.85
2018-06-28T00:42:13.290Z,60.71
2018-06-28T00:42:35.066Z,60.69
2018-06-28T00:42:56.822Z,60.99
2018-06-28T00:43:18.594Z,60.77
2018-06-28T00:43:40.400Z,60.75
2018-06-28T00:44:02.178Z,60.20
2018-06-28T00:44:23.935Z,60.91
2018-06-28T00:44:45.700Z,60.57
2018-06-28T00:45:07.477Z,60.73
2018-06-28T00:45:29.243Z,60.44
2018-06-28T00:45:51.022Z,61.04
2018-06-28T00:46:12.786Z,60.22
2018-06-28T00:46:34.544Z,60.97
2018-06-28T00:46:56.319Z,60.75
2018-06-28T00:47:18.088Z,60.13
2018-06-28T00:47:39.955Z,60.27
2018-06-28T00:48:01.731Z,60.03
2018-06-28T00:48:23.533Z,60.56
2018-06-28T00:48:45.292Z,60.63
2018-06-28T00:49:07.105Z,60.57
2018-06-28T00:49:28.876Z,60.09
2018-06-28T00:49:50.640Z,60.55
2018-06-28T00:50:12.418Z,60.62
2018-06-28T00:50:34.181Z,60.55
2018-06-28T00:50:55.989Z,59.97
2018-06-28T00:51:17.758Z,60.60
2018-06-28T00:51:39.556Z,60.39
2018-06-28T00:52:01.314Z,60.30
2018-06-28T00:52:23.110Z,59.85
2018-06-28T00:52:44.880Z,60.43
2018-06-28T00:53:06.644Z,60.33
2018-06-28T00:53:28.429Z,60.44
2018-06-28T00:53:50.186Z,60.47
2018-06-28T00:54:12.000Z,60.49
2018-06-28T00:54:33.779Z,60.27
2018-06-28T00:54:55.556Z,60.53
2018-06-28T00:55:17.304Z,60.24
2018-06-28T00:55:39.099Z,60.74
2018-06-28T00:56:00.869Z,60.66
2018-06-28T00:56:22.640Z,60.26
2018-06-28T00:56:44.412Z,60.24
2018-06-28T00:57:06.180Z,60.64
2018-06-28T00:57:27.953Z,60.35
2018-06-28T00:57:49.719Z,60.89
2018-06-28T00:58:11.495Z,60.48
2018-06-28T00:58:33.261Z,61.05
2018-06-28T00:58:55.014Z,60.62
2018-06-28T00:59:16.786Z,60.48
2018-06-28T00:59:38.556Z,60.67
2018-06-28T01:00:00.359Z,60.66
2018-06-28T01:00:22.145Z,60.65
2018-06-28T01:00:43.944Z,61.17
2018-06-28T01:01:05.691Z,60.87
2018-06-28T01:01:27.479Z,61.00
2018-06-28T01:01:49.252Z,60.64
2018-06-28T01:02:11.097Z,60.85
2018-06-28T01:02:32.869Z,60.53
2018-06-28T01:02:54.639Z,60.32
2018-06-28T01:03:16.399Z,60.74
2018-06-28T01:03:38.268Z,60.66
2018-06-28T01:04:00.050Z,60.55
2018-06-28T01:04:21.810Z,60.15
2018-06-28T01:04:43.585Z,60.48
2018-06-28T01:05:05.348Z,60.56
2018-06-28T01:05:27.119Z,60.15
2018-06-28T01:05:48.880Z,60.26
2018-06-28T01:06:10.740Z,60.25
2018-06-28T01:06:32.499Z,60.46
2018-06-28T01:06:54.296Z,60.28
2018-06-28T01:07:16.047Z,60.57
2018-06-28T01:07:37.802Z,60.73
2018-06-28T01:07:59.560Z,60.53
2018-06-28T01:08:21.325Z,60.66
2018-06-28T01:08:43.436Z,60.74
2018-06-28T01:09:05.191Z,61.06
2018-06-28T01:09:26.979Z,60.57
2018-06-28T01:09:48.750Z,60.82
2018-06-28T01:10:10.560Z,61.16
2018-06-28T01:10:32.350Z,60.37
2018-06-28T01:10:54.100Z,60.78
2018-06-28T01:11:15.868Z,60.74
2018-06-28T01:11:37.920Z,60.27
2018-06-28T01:11:59.689Z,60.77
2018-06-28T01:12:21.475Z,61.04
2018-06-28T01:12:43.236Z,60.83
2018-06-28T01:13:05.001Z,60.91
2018-06-28T01:13:26.779Z,60.71
2018-06-28T01:13:48.540Z,60.72
2018-06-28T01:14:10.306Z,60.48
2018-06-28T01:14:32.078Z,60.31
2018-06-28T01:14:53.840Z,60.22
2018-06-28T01:15:15.614Z,60.85
2018-06-28T01:15:37.380Z,60.56
2018-06-28T01:15:59.155Z,60.48
2018-06-28T01:16:20.922Z,60.54
2018-06-28T01:16:42.714Z,60.33
2018-06-28T01:17:04.477Z,60.04
2018-06-28T01:17:26.247Z,60.60
2018-06-28T01:17:48.028Z,60.86
2018-06-28T01:18:09.790Z,60.51
2018-06-28T01:18:31.554Z,60.74
2018-06-28T01:18:53.343Z,60.52
2018-06-28T01:19:15.100Z,60.54
2018-06-28T01:19:36.908Z,60.17
2018-06-28T01:19:58.693Z,60.78
2018-06-28T01:20:20.483Z,60.63
2018-06-28T01:20:42.246Z,60.37
2018-06-28T01:21:04.720Z,61.02
2018-06-28T01:21:26.486Z,60.70
2018-06-28T01:21:48.249Z,60.38
2018-06-28T01:22:10.021Z,60.82
2018-06-28T01:22:31.792Z,60.85
2018-06-28T01:22:53.559Z,60.25
2018-06-28T01:23:15.314Z,60.70
2018-06-28T01:23:37.085Z,60.77
2018-06-28T01:23:58.840Z,60.59
2018-06-28T01:24:20.597Z,60.84
2018-06-28T01:24:42.395Z,60.96
2018-06-28T01:25:04.162Z,60.14
2018-06-28T01:25:25.921Z,60.55
2018-06-28T01:25:47.700Z,60.64
2018-06-28T01:26:09.517Z,60.44
2018-06-28T01:26:31.289Z,60.17
2018-06-28T01:26:53.050Z,60.15
2018-06-28T01:27:14.831Z,60.40
2018-06-28T01:27:36.591Z,60.80
2018-06-28T01:27:58.367Z,60.37
2018-06-28T01:28:20.144Z,60.90
2018-06-28T01:28:41.891Z,60.12
2018-06-28T01:29:03.677Z,60.71
2018-06-28T01:29:25.431Z,61.05
2018-06-28T01:29:47.232Z,60.65
2018-06-28T01:30:09.027Z,60.84
2018-06-28T01:30:30.880Z,60.44
2018-06-28T01:30:52.809Z,61.00
2018-06-28T01:31:14.563Z,61.02
2018-06-28T01:31:36.325Z,60.76
2018-06-28T01:31:58.080Z,60.27
2018-06-28T01:32:19.854Z,60.99
2018-06-28T01:32:41.650Z,60.70
2018-06-28T01:33:03.403Z,60.86
2018-06-28T01:33:25.169Z,60.90
2018-06-28T01:33:46.959Z,60.61
2018-06-28T01:34:08.717Z,60.13
2018-06-28T01:34:30.492Z,60.41
2018-06-28T01:34:52.290Z,60.38
2018-06-28T01:35:14.083Z,60.47
2018-06-28T01:35:35.864Z,60.71
2018-06-28T01:35:57.620Z,60.61
2018-06-28T01:36:19.390Z,60.59
2018-06-28T01:36:41.168Z,60.67
2018-06-28T01:37:02.923Z,60.73
2018-06-28T01:37:24.672Z,60.29
2018-06-28T01:37:46.415Z,60.92
2018-06-28T01:38:08.171Z,60.07
2018-06-28T01:38:29.935Z,60.88
2018-06-28T01:38:51.737Z,60.79
2018-06-28T01:39:13.524Z,60.35
2018-06-28T01:39:35.276Z,60.59
2018-06-28T01:39:57.067Z,60.29
2018-06-28T01:40:18.976Z,60.33
2018-06-28T01:40:40.756Z,60.69
2018-06-28T01:41:02.511Z,60.70
2018-06-28T01:41:24.279Z,60.96
2018-06-28T01:41:46.038Z,60.69
2018-06-28T01:42:07.809Z,60.70
2018-06-28T01:42:29.593Z,60.54
2018-06-28T01:42:51.360Z,60.85
2018-06-28T01:43:13.128Z,60.71
2018-06-28T01:43:38.944Z,60.73
2018-06-28T01:44:00.713Z,60.02
2018-06-28T01:44:22.464Z,60.16
2018-06-28T01:44:44.226Z,60.46
2018-06-28T01:45:06.014Z,60.52
2018-06-28T01:45:27.784Z,60.57
2018-06-28T01:45:49.536Z,60.26
2018-06-28T01:46:11.294Z,60.85
2018-06-28T01:46:33.064Z,60.04
2018-06-28T01:46:54.874Z,60.07
2018-06-28T01:47:16.616Z,60.00
2018-06-28T01:47:38.638Z,60.54
2018-06-28T01:48:00.432Z,60.30
2018-06-28T01:48:22.203Z,60.27
2018-06-28T01:48:44.199Z,60.75
2018-06-28T01:49:05.977Z,60.51
2018-06-28T01:49:27.774Z,60.58
2018-06-28T01:49:49.548Z,60.24
2018-06-28T01:50:11.337Z,61.01
2018-06-28T01:50:33.108Z,60.65
2018-06-28T01:50:54.860Z,60.61
2018-06-28T01:51:16.605Z,60.40
2018-06-28T01:51:38.386Z,60.83
2018-06-28T01:52:00.148Z,61.13
2018-06-28T01:52:21.947Z,60.39
2018-06-28T01:52:43.713Z,60.64
2018-06-28T01:53:05.532Z,60.28
2018-06-28T01:53:27.849Z,60.85
2018-06-28T01:53:49.619Z,60.58
2018-06-28T01:54:11.385Z,61.21
2018-06-28T01:54:33.146Z,61.21
2018-06-28T01:54:54.944Z,60.75
2018-06-28T01:55:16.774Z,60.96
2018-06-28T01:55:38.539Z,60.57
2018-06-28T01:56:00.325Z,60.77
2018-06-28T01:56:22.132Z,60.95
2018-06-28T01:56:43.905Z,60.92
2018-06-28T01:57:05.682Z,60.89
2018-06-28T01:57:27.441Z,61.33
2018-06-28T01:57:49.209Z,61.34
2018-06-28T01:58:10.979Z,61.29
2018-06-28T01:58:32.791Z,60.77
2018-06-28T01:58:54.547Z,61.31
2018-06-28T01:59:16.343Z,61.22
2018-06-28T01:59:38.100Z,61.06
2018-06-28T01:59:59.858Z,60.75
2018-06-28T02:00:21.655Z,60.78
2018-06-28T02:00:43.520Z,61.74
2018-06-28T02:01:05.291Z,61.58
2018-06-28T02:01:27.102Z,61.53
2018-06-28T02:01:48.850Z,61.51
2018-06-28T02:02:10.641Z,61.37
2018-06-28T02:02:32.419Z,60.90
2018-06-28T02:02:54.230Z,61.55
2018-06-28T02:03:16.535Z,61.31
2018-06-28T02:03:38.282Z,60.61
2018-06-28T02:04:00.044Z,61.28
2018-06-28T02:04:21.820Z,61.14
2018-06-28T02:04:43.575Z,60.62
2018-06-28T02:05:05.345Z,61.16
2018-06-28T02:05:27.133Z,61.25
2018-06-28T02:05:50.861Z,61.26
2018-06-28T02:06:12.648Z,60.57
2018-06-28T02:06:34.402Z,61.07
2018-06-28T02:06:56.191Z,60.70
2018-06-28T02:07:18.179Z,60.67
2018-06-28T02:07:39.944Z,61.12
2018-06-28T02:08:01.700Z,60.55
2018-06-28T02:08:23.535Z,60.86
2018-06-28T02:08:45.304Z,60.79
2018-06-28T02:09:07.059Z,60.92
2018-06-28T02:09:28.827Z,60.92
2018-06-28T02:09:50.603Z,60.81
2018-06-28T02:10:12.372Z,60.65
2018-06-28T02:10:34.184Z,60.52
2018-06-28T02:10:55.935Z,60.71
2018-06-28T02:11:17.739Z,60.31
2018-06-28T02:11:39.508Z,60.20
2018-06-28T02:12:01.277Z,61.11
2018-06-28T02:12:23.036Z,61.00
2018-06-28T02:12:44.793Z,60.59
2018-06-28T02:13:06.600Z,60.81
2018-06-28T02:13:28.396Z,60.32
2018-06-28T02:13:50.191Z,60.71
2018-06-28T02:14:11.949Z,60.79
2018-06-28T02:14:33.701Z,60.92
2018-06-28T02:14:55.473Z,60.43
2018-06-28T02:15:17.240Z,61.00
2018-06-28T02:15:39.044Z,61.25
2018-06-28T02:16:00.805Z,60.62
2018-06-28T02:16:22.580Z,61.04
2018-06-28T02:16:44.343Z,61.05
2018-06-28T02:17:06.101Z,60.43
2018-06-28T02:17:27.858Z,60.71
2018-06-28T02:17:49.625Z,61.21
2018-06-28T02:18:11.413Z,61.12
2018-06-28T02:18:33.197Z,60.75
2018-06-28T02:18:54.963Z,60.78
2018-06-28T02:19:16.742Z,60.25
2018-06-28T02:19:38.499Z,61.09
2018-06-28T02:20:00.252Z,61.03
2018-06-28T02:20:22.009Z,60.95
2018-06-28T02:20:43.792Z,60.70
2018-06-28T02:21:05.547Z,60.44
2018-06-28T02:21:27.326Z,60.84
2018-06-28T02:21:49.091Z,60.64
2018-06-28T02:22:10.838Z,60.78
2018-06-28T02:22:32.623Z,60.26
2018-06-28T02:22:54.636Z,60.55
2018-06-28T02:23:16.397Z,61.04
2018-06-28T02:23:38.156Z,61.13
2018-06-28T02:23:59.932Z,60.68
2018-06-28T02:24:21.671Z,60.58
2018-06-28T02:24:43.440Z,60.83
2018-06-28T02:25:05.186Z,60.82
2018-06-28T02:25:27.010Z,60.30
2018-06-28T02:25:48.799Z,60.68
2018-06-28T02:26:10.588Z,60.48
2018-06-28T02:26:32.405Z,60.77
2018-06-28T02:26:54.167Z,61.05
2018-06-28T02:27:15.926Z,60.25
2018-06-28T02:27:37.679Z,60.19
2018-06-28T02:27:59.436Z,60.61
2018-06-28T02:28:21.192Z,60.78
2018-06-28T02:28:42.958Z,60.47
2018-06-28T02:29:04.731Z,60.64
2018-06-28T02:29:26.496Z,60.88
2018-06-28T02:29:48.264Z,60.31
2018-06-28T02:30:10.248Z,60.35
2018-06-28T02:30:32.007Z,60.04
2018-06-28T02:30:53.815Z,60.91
2018-06-28T02:31:15.562Z,60.58
2018-06-28T02:31:37.332Z,60.57
2018-06-28T02:31:59.091Z,60.84
2018-06-28T02:32:20.848Z,60.74
2018-06-28T02:32:42.625Z,60.35
2018-06-28T02:33:04.400Z,60.36
2018-06-28T02:33:26.227Z,60.92
2018-06-28T02:33:47.986Z,60.00
2018-06-28T02:34:09.747Z,60.20
2018-06-28T02:34:31.511Z,60.32
2018-06-28T02:34:53.273Z,60.46
2018-06-28T02:35:15.117Z,60.68
2018-06-28T02:35:36.891Z,59.74
2018-06-28T02:35:58.690Z,60.39
2018-06-28T02:36:20.469Z,60.21
2018-06-28T02:36:42.282Z,60.75
2018-06-28T02:37:04.275Z,60.18
2018-06-28T02:37:26.033Z,60.15
2018-06-28T02:37:47.809Z,60.50
2018-06-28T02:38:09.567Z,60.51
2018-06-28T02:38:31.363Z,60.66
2018-06-28T02:38:53.137Z,60.65
2018-06-28T02:39:14.888Z,60.58
2018-06-28T02:39:36.664Z,61.00
2018-06-28T02:39:58.424Z,61.01
2018-06-28T02:40:20.224Z,60.51
2018-06-28T02:40:41.997Z,60.76
2018-06-28T02:41:03.792Z,60.55
2018-06-28T02:41:25.564Z,60.44
2018-06-28T02:41:47.361Z,61.32
2018-06-28T02:42:09.156Z,60.68
2018-06-28T02:42:30.918Z,61.36
2018-06-28T02:42:52.732Z,61.34
2018-06-28T02:43:14.502Z,61.40
2018-06-28T02:43:36.275Z,60.95
2018-06-28T02:43:58.027Z,61.02
2018-06-28T02:44:19.799Z,60.71
2018-06-28T02:44:41.560Z,61.28
2018-06-28T02:45:03.458Z,61.31
2018-06-28T02:45:25.228Z,61.29
2018-06-28T02:45:46.988Z,61.41
2018-06-28T02:46:08.794Z,61.61
2018-06-28T02:46:30.569Z,61.47
2018-06-28T02:46:52.327Z,61.37
2018-06-28T02:47:14.094Z,61.54
2018-06-28T02:47:35.868Z,60.91
2018-06-28T02:47:57.632Z,61.11
2018-06-28T02:48:19.412Z,61.29
2018-06-28T02:48:41.173Z,61.27
2018-06-28T02:49:02.926Z,61.08
2018-06-28T02:49:24.695Z,61.32
2018-06-28T02:49:46.447Z,61.11
2018-06-28T02:50:08.216Z,61.18
2018-06-28T02:50:29.982Z,60.94
2018-06-28T02:50:51.723Z,61.70
2018-06-28T02:51:13.542Z,61.53
2018-06-28T02:51:35.381Z,61.39
2018-06-28T02:51:57.153Z,61.33
2018-06-28T02:52:18.932Z,61.88
2018-06-28T02:52:40.705Z,61.78
2018-06-28T02:53:02.471Z,61.54
2018-06-28T02:53:24.228Z,61.50
2018-06-28T02:53:45.987Z,61.28
2018-06-28T02:54:07.953Z,60.88
2018-06-28T02:54:29.712Z,61.26
2018-06-28T02:54:51.451Z,61.25
2018-06-28T02:55:13.223Z,60.78
2018-06-28T02:55:35.025Z,60.77
2018-06-28T02:55:56.843Z,61.24
2018-06-28T02:56:18.638Z,60.88
2018-06-28T02:56:40.407Z,61.36
2018-06-28T02:57:02.184Z,61.03
2018-06-28T02:57:23.956Z,60.68
2018-06-28T02:57:45.733Z,60.59
2018-06-28T02:58:07.520Z,61.39
2018-06-28T02:58:29.286Z,61.05
2018-06-28T02:58:51.047Z,61.13
2018-06-28T02:59:12.828Z,61.41
2018-06-28T02:59:34.602Z,61.00
2018-06-28T02:59:56.386Z,60.72
2018-06-28T03:00:18.158Z,60.98
2018-06-28T03:00:39.944Z,60.60
2018-06-28T03:01:01.692Z,60.58
2018-06-28T03:01:23.523Z,61.12
2018-06-28T03:01:45.286Z,61.22
2018-06-28T03:02:07.081Z,60.59
2018-06-28T03:02:28.841Z,60.81
2018-06-28T03:02:50.632Z,60.84
2018-06-28T03:03:12.410Z,60.99
2018-06-28T03:03:34.179Z,60.71
2018-06-28T03:03:55.935Z,61.20
2018-06-28T03:04:17.684Z,60.64
2018-06-28T03:04:39.442Z,61.30
2018-06-28T03:05:01.224Z,60.64
2018-06-28T03:05:22.981Z,60.56
2018-06-28T03:05:44.795Z,61.11
2018-06-28T03:06:06.553Z,60.29
2018-06-28T03:06:28.340Z,60.35
2018-06-28T03:06:50.099Z,60.40
2018-06-28T03:07:11.864Z,60.92
2018-06-28T03:07:33.642Z,60.43
2018-06-28T03:07:55.395Z,60.87
2018-06-28T03:08:17.181Z,60.98
2018-06-28T03:08:38.952Z,61.10
2018-06-28T03:09:00.739Z,60.94
2018-06-28T03:09:22.513Z,60.65
2018-06-28T03:09:44.283Z,60.67
2018-06-28T03:10:06.041Z,60.66
2018-06-28T03:10:27.804Z,60.81
2018-06-28T03:10:49.563Z,60.76
2018-06-28T03:11:11.328Z,60.44
2018-06-28T03:11:33.138Z,60.77
2018-06-28T03:11:54.918Z,60.88
2018-06-28T03:12:16.740Z,60.77
2018-06-28T03:12:38.495Z,60.47
2018-06-28T03:13:00.249Z,61.07
2018-06-28T03:13:22.048Z,61.10
2018-06-28T03:13:43.829Z,60.92
2018-06-28T03:14:05.811Z,60.70
2018-06-28T03:14:27.577Z,60.45
2018-06-28T03:14:49.353Z,60.62
2018-06-28T03:15:11.207Z,60.20
2018-06-28T03:15:32.975Z,60.21
2018-06-28T03:15:54.820Z,61.07
2018-06-28T03:16:16.882Z,60.65
2018-06-28T03:16:38.694Z,61.21
2018-06-28T03:17:00.480Z,60.70
2018-06-28T03:17:22.255Z,60.43
2018-06-28T03:17:44.042Z,60.94
2018-06-28T03:18:05.819Z,60.46
2018-06-28T03:18:27.586Z,61.05
2018-06-28T03:18:49.346Z,60.70
2018-06-28T03:19:11.103Z,60.92
2018-06-28T03:19:32.878Z,61.15
2018-06-28T03:19:54.631Z,61.00
2018-06-28T03:20:16.449Z,61.03
2018-06-28T03:20:38.202Z,61.44
2018-06-28T03:21:00.040Z,61.03
2018-06-28T03:21:21.804Z,60.90
2018-06-28T03:21:43.600Z,61.47
2018-06-28T03:22:05.354Z,60.82
2018-06-28T03:22:27.139Z,60.92
2018-06-28T03:22:48.903Z,61.13
2018-06-28T03:23:10.661Z,60.89
2018-06-28T03:23:32.543Z,60.94
2018-06-28T03:23:54.309Z,61.79
2018-06-28T03:24:16.113Z,61.10
2018-06-28T03:24:37.969Z,61.38
2018-06-28T03:24:59.743Z,60.86
2018-06-28T03:25:21.528Z,61.36
2018-06-28T03:25:43.303Z,61.55
2018-06-28T03:26:05.065Z,61.17
2018-06-28T03:26:26.877Z,61.45
2018-06-28T03:26:48.702Z,60.90
2018-06-28T03:27:10.483Z,61.66
2018-06-28T03:27:32.239Z,60.88
2018-06-28T03:27:54.002Z,60.86
2018-06-28T03:28:15.772Z,61.06
2018-06-28T03:28:37.536Z,60.80
2018-06-28T03:28:59.322Z,60.99
2018-06-28T03:29:21.086Z,60.80
2018-06-28T03:29:42.856Z,60.85
2018-06-28T03:30:04.664Z,60.70
2018-06-28T03:30:26.430Z,61.03
2018-06-28T03:30:48.205Z,60.98
2018-06-28T03:31:09.976Z,61.53
2018-06-28T03:31:31.725Z,61.12
2018-06-28T03:31:53.514Z,61.15
2018-06-28T03:32:15.289Z,60.94
2018-06-28T03:32:37.056Z,61.43
2018-06-28T03:32:58.823Z,60.93
2018-06-28T03:33:20.576Z,60.78
2018-06-28T03:33:42.383Z,61.19
2018-06-28T03:34:04.143Z,61.10
2018-06-28T03:34:25.943Z,61.23
2018-06-28T03:34:47.691Z,60.48
2018-06-28T03:35:09.451Z,60.51
2018-06-28T03:35:31.212Z,60.99
2018-06-28T03:35:52.981Z,60.92
2018-06-28T03:36:14.733Z,60.80
2018-06-28T03:36:36.528Z,60.16
2018-06-28T03:36:58.336Z,60.94
2018-06-28T03:37:20.100Z,61.16
2018-06-28T03:37:41.906Z,61.21
2018-06-28T03:38:03.721Z,61.00
2018-06-28T03:38:25.436Z,61.36
2018-06-28T03:38:47.202Z,61.40
2018-06-28T03:39:09.929Z,61.21
2018-06-28T03:39:31.691Z,61.47
2018-06-28T03:39:53.456Z,60.83
2018-06-28T03:40:15.228Z,61.00
2018-06-28T03:40:36.991Z,60.98
2018-06-28T03:40:58.764Z,61.25
2018-06-28T03:41:20.506Z,61.06
2018-06-28T03:41:42.647Z,60.78
2018-06-28T03:42:04.436Z,61.28
2018-06-28T03:42:26.206Z,60.80
2018-06-28T03:42:48.017Z,61.60
2018-06-28T03:43:09.776Z,61.17
2018-06-28T03:43:31.612Z,60.98
2018-06-28T03:43:53.377Z,61.15
2018-06-28T03:44:15.186Z,61.37
2018-06-28T03:44:36.943Z,61.49
2018-06-28T03:44:58.709Z,61.54
2018-06-28T03:45:20.484Z,61.26
2018-06-28T03:45:42.293Z,61.30
2018-06-28T03:46:04.113Z,60.95
2018-06-28T03:46:25.925Z,61.04
2018-06-28T03:46:47.708Z,61.05
2018-06-28T03:47:09.505Z,61.28
2018-06-28T03:47:31.288Z,61.26
2018-06-28T03:47:53.073Z,61.13
2018-06-28T03:48:14.831Z,60.72
2018-06-28T03:48:36.629Z,60.64
2018-06-28T03:48:58.426Z,60.92
2018-06-28T03:49:20.215Z,61.31
2018-06-28T03:49:42.003Z,60.68
2018-06-28T03:50:03.765Z,60.81
2018-06-28T03:50:25.575Z,60.60
2018-06-28T03:50:47.356Z,60.58
2018-06-28T03:51:09.124Z,60.65
2018-06-28T03:51:30.935Z,60.38
2018-06-28T03:51:52.720Z,61.17
2018-06-28T03:52:14.534Z,60.71
2018-06-28T03:52:36.306Z,60.57
2018-06-28T03:52:58.098Z,61.11
2018-06-28T03:53:19.868Z,60.94
2018-06-28T03:53:41.673Z,61.23
2018-06-28T03:54:03.710Z,60.92
2018-06-28T03:54:25.492Z,61.18
2018-06-28T03:54:47.284Z,61.33
2018-06-28T03:55:09.058Z,60.85
2018-06-28T03:55:30.825Z,61.48
2018-06-28T03:55:52.601Z,61.46
2018-06-28T03:56:14.763Z,61.54
2018-06-28T03:56:36.776Z,61.24
2018-06-28T03:56:58.548Z,61.44
2018-06-28T03:57:20.372Z,61.87
2018-06-28T03:57:42.149Z,61.18
2018-06-28T03:58:03.900Z,61.54
2018-06-28T03:58:25.673Z,61.63
2018-06-28T03:58:47.453Z,62.00
2018-06-28T03:59:09.239Z,61.04
2018-06-28T03:59:31.008Z,62.05
2018-06-28T03:59:52.783Z,61.57
2018-06-28T04:00:14.548Z,61.95
2018-06-28T04:00:36.386Z,62.28
2018-06-28T04:00:58.164Z,62.14
2018-06-28T04:01:19.940Z,61.78
2018-06-28T04:01:41.707Z,62.45
2018-06-28T04:02:03.491Z,62.08
2018-06-28T04:02:25.288Z,62.03
2018-06-28T04:02:47.048Z,62.13
2018-06-28T04:03:08.871Z,62.15
2018-06-28T04:03:30.636Z,62.15
2018-06-28T04:03:52.415Z,62.01
2018-06-28T04:04:14.165Z,62.50
2018-06-28T04:04:35.925Z,62.78
2018-06-28T04:04:57.714Z,62.12
2018-06-28T04:05:19.502Z,62.90
2018-06-28T04:05:41.297Z,62.12
2018-06-28T04:06:03.076Z,62.13
2018-06-28T04:06:24.931Z,62.86
2018-06-28T04:06:46.713Z,62.32
2018-06-28T04:07:08.480Z,62.52
2018-06-28T04:07:30.304Z,62.36
2018-06-28T04:07:52.078Z,61.94
2018-06-28T04:08:13.855Z,62.57
2018-06-28T04:08:35.628Z,62.39
2018-06-28T04:09:08.892Z,61.90
2018-06-28T04:09:30.659Z,62.07
2018-06-28T04:09:52.421Z,61.83
2018-06-28T04:10:14.201Z,61.93
2018-06-28T04:10:35.966Z,61.95
2018-06-28T04:10:57.829Z,62.11
2018-06-28T04:11:19.618Z,61.52
2018-06-28T04:11:41.380Z,62.24
2018-06-28T04:12:03.154Z,62.23
2018-06-28T04:12:24.959Z,61.33
2018-06-28T04:12:46.769Z,61.98
2018-06-28T04:13:08.569Z,61.61
2018-06-28T04:13:30.348Z,61.27
2018-06-28T04:13:52.239Z,61.62
2018-06-28T04:14:14.010Z,61.52
2018-06-28T04:14:35.792Z,61.55
2018-06-28T04:14:57.580Z,61.21
2018-06-28T04:15:51.911Z,61.75
2018-06-28T04:16:13.711Z,61.48
2018-06-28T04:16:35.815Z,61.40
2018-06-28T04:16:57.583Z,61.90
2018-06-28T04:17:19.353Z,61.34
2018-06-28T04:17:41.166Z,61.49
2018-06-28T04:18:02.962Z,61.83
2018-06-28T04:18:24.725Z,61.83
2018-06-28T04:18:46.523Z,61.03
2018-06-28T04:19:08.287Z,61.62
2018-06-28T04:19:30.069Z,61.07
2018-06-28T04:19:51.827Z,61.31
2018-06-28T04:20:13.579Z,61.39
2018-06-28T04:20:35.338Z,61.61
2018-06-28T04:20:57.108Z,61.58
2018-06-28T04:21:19.279Z,61.21
2018-06-28T04:21:41.076Z,61.81
2018-06-28T04:22:02.882Z,61.87
2018-06-28T04:22:29.708Z,61.67
2018-06-28T04:22:51.459Z,61.71
2018-06-28T04:23:13.247Z,62.34
2018-06-28T04:23:35.049Z,62.38
2018-06-28T04:23:56.828Z,62.70
2018-06-28T04:24:18.653Z,62.57
2018-06-28T04:24:40.411Z,62.31
2018-06-28T04:25:02.181Z,62.37
2018-06-28T04:25:23.996Z,62.46
2018-06-28T04:25:45.756Z,62.10
2018-06-28T04:26:07.549Z,62.37
2018-06-28T04:26:29.339Z,62.41
2018-06-28T04:26:51.118Z,62.49
2018-06-28T04:27:12.874Z,62.46
2018-06-28T04:27:34.715Z,62.31
2018-06-28T04:27:56.424Z,62.51
2018-06-28T04:28:18.224Z,62.95
2018-06-28T04:28:39.975Z,62.97
2018-06-28T04:29:01.737Z,62.73
2018-06-28T04:29:23.517Z,62.59
2018-06-28T04:29:45.300Z,63.24
2018-06-28T04:30:07.123Z,62.30
2018-06-28T04:30:28.906Z,62.23
2018-06-28T04:30:50.689Z,62.27
2018-06-28T04:31:12.434Z,62.38
2018-06-28T04:31:34.238Z,62.30
2018-06-28T04:31:56.019Z,62.83
2018-06-28T04:32:17.817Z,62.63
2018-06-28T04:32:39.591Z,62.83
2018-06-28T04:33:01.340Z,62.95
2018-06-28T04:33:23.146Z,62.84
2018-06-28T04:33:44.973Z,62.90
2018-06-28T04:34:06.768Z,62.72
2018-06-28T04:34:28.554Z,62.76
2018-06-28T04:34:51.004Z,62.33
2018-06-28T04:35:12.792Z,62.19
2018-06-28T04:35:34.554Z,62.84
2018-06-28T04:35:56.324Z,63.05
2018-06-28T04:36:18.092Z,62.36
2018-06-28T04:36:39.851Z,62.23
2018-06-28T04:37:01.615Z,63.04
2018-06-28T04:37:23.388Z,62.99
2018-06-28T04:37:45.146Z,62.35
2018-06-28T04:38:06.904Z,62.60
2018-06-28T04:38:28.716Z,63.17
2018-06-28T04:38:50.483Z,62.98
2018-06-28T04:39:13.227Z,62.33
2018-06-28T04:39:34.976Z,63.19
2018-06-28T04:39:56.756Z,63.03
2018-06-28T04:40:18.515Z,62.62
2018-06-28T04:40:40.286Z,62.55
2018-06-28T04:41:02.067Z,62.37
2018-06-28T04:41:23.844Z,63.03